createdAt,value
2022-10-07T00:01:25.425Z,80.35
2022-10-07T00:03:51.979Z,80.27
2022-10-07T00:06:19.316Z,80.25
2022-10-07T00:08:52.315Z,80.56
2022-10-07T00:11:21.331Z,80.22
2022-10-07T00:13:48.671Z,80.83
2022-10-07T00:16:17.105Z,80.33
2022-10-07T00:18:44.169Z,79.96
2022-10-07T00:21:12.401Z,80.32
2022-10-07T00:23:39.706Z,80.04
2022-10-07T00:26:07.520Z,80.68
2022-10-07T00:28:34.803Z,80.90
2022-10-07T00:31:03.970Z,80.77
2022-10-07T00:33:32.063Z,80.49
2022-10-07T00:35:58.598Z,80.76
2022-10-07T00:38:25.008Z,81.03
2022-10-07T00:40:51.437Z,80.51
2022-10-07T00:43:32.317Z,80.56
2022-10-07T00:46:01.050Z,80.53
2022-10-07T00:48:30.995Z,80.94
2022-10-07T00:50:58.658Z,81.05
2022-10-07T00:53:26.039Z,80.73
2022-10-07T00:55:53.287Z,80.92
2022-10-07T00:58:19.682Z,80.99
2022-10-07T01:00:46.520Z,80.96
2022-10-07T01:03:12.889Z,80.75
2022-10-07T01:05:39.307Z,80.68
2022-10-07T01:08:05.733Z,80.93
2022-10-07T01:10:50.888Z,80.73
2022-10-07T01:13:23.133Z,80.59
2022-10-07T01:15:50.214Z,80.99
2022-10-07T01:18:22.835Z,81.30
2022-10-07T01:20:55.325Z,80.96
2022-10-07T01:23:21.708Z,80.99
2022-10-07T01:25:54.933Z,81.34
2022-10-07T01:28:29.546Z,81.70
2022-10-07T01:30:58.843Z,81.57
2022-10-07T01:33:27.753Z,81.63
2022-10-07T01:35:55.969Z,81.34
2022-10-07T01:38:23.725Z,81.18
2022-10-07T01:40:56.901Z,81.55
2022-10-07T01:43:23.568Z,81.76
2022-10-07T01:45:51.468Z,81.55
2022-10-07T01:48:18.268Z,81.36
2022-10-07T01:50:45.595Z,81.15
2022-10-07T01:53:27.392Z,82.69
2022-10-07T01:56:13.976Z,81.39
2022-10-07T01:58:54.103Z,81.84
2022-10-07T02:01:31.369Z,82.22
2022-10-07T02:04:21.986Z,82.44
2022-10-07T02:07:00.615Z,82.55
2022-10-07T02:09:33.946Z,82.69
2022-10-07T02:12:15.521Z,82.56
2022-10-07T02:14:54.733Z,82.57
2022-10-07T02:17:24.089Z,82.88
2022-10-07T02:19:56.430Z,83.19
2022-10-07T02:22:25.915Z,82.89
2022-10-07T02:24:55.269Z,82.79
2022-10-07T02:27:24.394Z,82.82
2022-10-07T02:29:54.212Z,82.83
2022-10-07T02:32:22.867Z,83.37
2022-10-07T02:34:53.303Z,83.16
2022-10-07T02:37:24.148Z,83.18
2022-10-07T02:39:51.896Z,83.79
2022-10-07T02:42:30.849Z,83.82
2022-10-07T02:45:03.709Z,83.42
2022-10-07T02:47:35.755Z,83.64
2022-10-07T02:50:04.749Z,84.96
2022-10-07T02:52:32.505Z,84.58
2022-10-07T02:55:04.296Z,84.95
2022-10-07T02:57:32.851Z,84.38
2022-10-07T03:00:01.027Z,84.37
2022-10-07T03:02:39.428Z,84.03
2022-10-07T03:05:07.085Z,83.72
2022-10-07T03:07:35.201Z,85.02
2022-10-07T03:10:04.201Z,85.90
2022-10-07T03:12:30.787Z,86.07
2022-10-07T03:14:57.568Z,86.03
2022-10-07T03:17:24.202Z,86.56
2022-10-07T03:19:50.604Z,86.20
2022-10-07T03:22:17.366Z,87.08
2022-10-07T03:24:44.029Z,87.17
2022-10-07T03:27:10.380Z,87.22
2022-10-07T03:29:38.944Z,86.96
2022-10-07T03:32:06.690Z,87.29
2022-10-07T03:34:33.713Z,88.08
2022-10-07T03:37:00.818Z,87.12
2022-10-07T03:39:28.191Z,86.88
2022-10-07T03:41:54.660Z,88.16
2022-10-07T03:44:22.421Z,87.67
2022-10-07T03:46:50.613Z,88.19
2022-10-07T03:49:20.066Z,87.49
2022-10-07T03:51:46.431Z,87.03
2022-10-07T03:54:12.957Z,88.42
2022-10-07T03:56:39.998Z,87.92
2022-10-07T03:59:06.403Z,86.95
2022-10-07T04:01:32.905Z,86.75
2022-10-07T04:04:00.904Z,86.72
2022-10-07T04:06:31.135Z,87.18
2022-10-07T04:09:00.129Z,87.29
2022-10-07T04:11:26.703Z,87.69
2022-10-07T04:14:00.652Z,88.34
2022-10-07T04:16:28.086Z,87.42
2022-10-07T04:18:56.078Z,87.73
2022-10-07T04:21:23.836Z,87.30
2022-10-07T04:23:50.239Z,87.39
2022-10-07T04:26:16.761Z,87.51
2022-10-07T04:28:49.114Z,87.27
2022-10-07T04:31:18.719Z,87.04
2022-10-07T04:33:48.455Z,87.00
2022-10-07T04:36:20.716Z,87.26
2022-10-07T04:38:56.193Z,87.28
2022-10-07T04:41:26.652Z,88.09
2022-10-07T04:43:56.843Z,88.93
2022-10-07T04:46:25.628Z,87.62
2022-10-07T04:48:59.733Z,88.06
2022-10-07T04:51:27.585Z,89.48
2022-10-07T04:53:57.484Z,88.47
2022-10-07T04:56:48.362Z,88.16
2022-10-07T04:59:14.830Z,88.39
2022-10-07T05:01:42.755Z,88.26
2022-10-07T05:04:10.783Z,88.16
2022-10-07T05:06:37.555Z,87.83
2022-10-07T05:09:04.245Z,88.13
2022-10-07T05:11:34.070Z,87.72
2022-10-07T05:14:07.356Z,87.64
2022-10-07T05:16:35.062Z,88.53
2022-10-07T05:19:03.140Z,87.78
2022-10-07T05:21:29.674Z,88.39
2022-10-07T05:23:56.485Z,88.07
2022-10-07T05:26:29.579Z,88.17
2022-10-07T05:28:59.101Z,88.45
2022-10-07T05:31:31.885Z,87.95
2022-10-07T05:34:01.220Z,89.03
2022-10-07T05:36:28.093Z,88.53
2022-10-07T05:38:58.055Z,88.45
2022-10-07T05:41:30.787Z,88.09
2022-10-07T05:44:01.048Z,88.38
2022-10-07T05:46:27.731Z,88.48
2022-10-07T05:48:57.244Z,89.05
2022-10-07T05:51:27.868Z,88.37
2022-10-07T05:53:56.687Z,88.35
2022-10-07T05:56:28.485Z,88.35
2022-10-07T05:58:58.778Z,89.25
2022-10-07T06:01:28.324Z,88.87
2022-10-07T06:03:57.325Z,89.10
2022-10-07T06:06:26.667Z,89.31
2022-10-07T06:09:15.628Z,88.81
2022-10-07T06:12:01.747Z,88.39
2022-10-07T06:14:28.971Z,88.59
2022-10-07T06:16:55.439Z,88.90
2022-10-07T06:19:25.127Z,88.71
2022-10-07T06:21:55.140Z,88.50
2022-10-07T06:24:21.603Z,88.99
2022-10-07T06:26:49.022Z,89.33
2022-10-07T06:29:16.184Z,89.28
2022-10-07T06:31:42.818Z,90.34
2022-10-07T06:34:09.282Z,89.76
2022-10-07T06:36:36.865Z,90.01
2022-10-07T06:39:03.939Z,90.28
2022-10-07T06:41:36.045Z,90.56
2022-10-07T06:44:18.557Z,90.76
2022-10-07T06:46:45.247Z,90.39
2022-10-07T06:49:12.036Z,91.41
2022-10-07T06:51:38.777Z,91.35
2022-10-07T06:54:05.162Z,90.86
2022-10-07T06:56:31.646Z,91.20
2022-10-07T06:58:58.167Z,91.54
2022-10-07T07:01:35.941Z,90.72
2022-10-07T07:04:02.439Z,90.82
2022-10-07T07:06:29.182Z,90.84
2022-10-07T07:08:58.389Z,90.32
2022-10-07T07:11:37.943Z,90.45
2022-10-07T07:14:15.612Z,90.23
2022-10-07T07:16:47.968Z,90.55
2022-10-07T07:19:16.054Z,89.89
2022-10-07T07:21:45.552Z,90.22
2022-10-07T07:24:16.538Z,89.73
2022-10-07T07:26:44.032Z,88.93
2022-10-07T07:29:12.243Z,89.41
2022-10-07T07:31:44.436Z,88.00
2022-10-07T07:34:13.625Z,88.52
2022-10-07T07:36:45.329Z,88.68
2022-10-07T07:39:14.363Z,86.82
2022-10-07T07:41:45.909Z,86.79
2022-10-07T07:44:14.347Z,86.50
2022-10-07T07:46:43.180Z,87.55
2022-10-07T07:49:11.929Z,86.73
2022-10-07T07:51:42.396Z,85.83
2022-10-07T07:54:12.351Z,85.41
2022-10-07T07:56:41.536Z,85.17
2022-10-07T07:59:08.585Z,85.94
2022-10-07T08:01:35.446Z,85.50
2022-10-07T08:04:04.045Z,84.68
2022-10-07T08:06:32.553Z,85.19
2022-10-07T08:09:00.791Z,84.66
2022-10-07T08:11:28.228Z,85.44
2022-10-07T08:13:56.352Z,83.68
2022-10-07T08:16:25.938Z,84.44
2022-10-07T08:18:54.237Z,85.45
2022-10-07T08:21:21.936Z,84.20
2022-10-07T08:23:57.439Z,85.57
2022-10-07T08:26:28.650Z,84.93
2022-10-07T08:28:57.795Z,85.21
2022-10-07T08:31:28.439Z,86.23
2022-10-07T08:33:57.058Z,85.47
2022-10-07T08:36:24.163Z,84.74
2022-10-07T08:38:50.769Z,84.38
2022-10-07T08:41:28.273Z,85.18
2022-10-07T08:43:57.232Z,83.84
2022-10-07T08:46:29.210Z,82.67
2022-10-07T08:49:03.713Z,82.54
2022-10-07T08:51:32.921Z,82.97
2022-10-07T08:53:59.385Z,82.70
2022-10-07T08:56:26.432Z,82.21
2022-10-07T08:59:11.625Z,82.18
2022-10-07T09:01:41.297Z,82.64
2022-10-07T09:04:20.433Z,82.11
2022-10-07T09:06:52.072Z,81.70
2022-10-07T09:09:30.365Z,81.24
2022-10-07T09:11:57.438Z,81.64
2022-10-07T09:14:40.095Z,81.82
2022-10-07T09:17:19.421Z,81.47
2022-10-07T09:19:48.427Z,81.30
2022-10-07T09:22:19.591Z,80.25
2022-10-07T09:24:47.172Z,80.54
2022-10-07T09:27:16.045Z,81.63
2022-10-07T09:29:42.833Z,80.27
2022-10-07T09:32:11.785Z,79.87
2022-10-07T09:34:38.219Z,79.78
2022-10-07T09:37:10.885Z,78.28
2022-10-07T09:39:37.358Z,79.25
2022-10-07T09:42:07.046Z,79.25
2022-10-07T09:44:33.486Z,79.60
2022-10-07T09:47:11.836Z,79.66
2022-10-07T09:49:41.017Z,78.58
2022-10-07T09:52:14.295Z,77.76
2022-10-07T09:54:41.385Z,78.34
2022-10-07T09:57:22.426Z,78.91
2022-10-07T09:59:48.820Z,78.11
2022-10-07T10:07:53.458Z,75.60
2022-10-07T10:10:24.551Z,77.28
2022-10-07T10:12:52.864Z,75.11
2022-10-07T10:15:22.412Z,76.02
2022-10-07T10:17:48.866Z,74.54
2022-10-07T10:20:25.689Z,74.60
2022-10-07T10:22:52.518Z,74.55
2022-10-07T10:25:41.782Z,74.46
2022-10-07T10:28:19.135Z,74.59
2022-10-07T10:30:52.202Z,73.18
2022-10-07T10:33:33.577Z,73.61
2022-10-07T10:36:35.624Z,74.03
2022-10-07T10:39:04.777Z,73.02
2022-10-07T10:41:33.884Z,72.41
2022-10-07T10:44:05.739Z,72.47
2022-10-07T10:46:39.340Z,71.18
2022-10-07T10:49:10.804Z,67.85
2022-10-07T10:51:50.372Z,67.21
2022-10-07T10:54:17.694Z,69.42
2022-10-07T10:56:51.643Z,67.92
2022-10-07T10:59:37.538Z,66.48
2022-10-07T11:02:17.882Z,66.21
2022-10-07T11:04:47.753Z,66.86
2022-10-07T11:07:25.411Z,65.77
2022-10-07T11:09:53.283Z,65.29
2022-10-07T11:12:31.878Z,64.70
2022-10-07T11:15:02.187Z,65.70
2022-10-07T11:17:34.099Z,64.74
2022-10-07T11:20:15.731Z,64.22
2022-10-07T11:22:44.992Z,65.04
2022-10-07T11:25:20.686Z,64.63
2022-10-07T11:27:48.948Z,65.32
2022-10-07T11:30:17.510Z,65.47
2022-10-07T11:32:49.820Z,65.26
2022-10-07T11:35:23.311Z,64.91
2022-10-07T11:38:12.956Z,63.91
2022-10-07T11:40:53.691Z,63.65
2022-10-07T11:43:30.288Z,63.34
2022-10-07T11:45:59.941Z,63.10
2022-10-07T11:48:49.870Z,63.55
2022-10-07T11:51:37.307Z,61.60
2022-10-07T11:54:06.378Z,61.99
2022-10-07T11:56:38.049Z,62.35
2022-10-07T11:59:06.496Z,62.26
2022-10-07T12:01:35.988Z,61.68
2022-10-07T12:04:21.113Z,62.33
2022-10-07T12:07:06.773Z,61.44
2022-10-07T12:09:51.734Z,61.48
2022-10-07T12:12:22.024Z,60.16
2022-10-07T12:14:58.383Z,59.61
2022-10-07T12:17:27.265Z,60.54
2022-10-07T12:20:12.428Z,60.85
2022-10-07T12:22:39.057Z,61.08
2022-10-07T12:25:29.131Z,61.33
2022-10-07T12:27:56.672Z,61.36
2022-10-07T12:30:42.379Z,61.63
2022-10-07T12:33:16.050Z,60.92
2022-10-07T12:35:48.702Z,60.60
2022-10-07T12:38:23.404Z,62.89
2022-10-07T12:41:13.052Z,61.05
2022-10-07T12:43:39.430Z,58.84
2022-10-07T12:46:13.314Z,58.92
2022-10-07T12:48:41.582Z,59.04
2022-10-07T12:51:14.568Z,58.05
2022-10-07T12:53:41.617Z,58.03
2022-10-07T12:56:08.912Z,58.16
2022-10-07T12:59:05.395Z,58.57
2022-10-07T13:01:46.718Z,58.88
2022-10-07T13:04:25.258Z,59.04
2022-10-07T13:07:10.389Z,59.24
2022-10-07T13:09:36.759Z,57.46
2022-10-07T13:12:12.809Z,57.45
2022-10-07T13:14:39.171Z,57.22
2022-10-07T13:17:28.863Z,57.68
2022-10-07T13:19:56.746Z,56.80
2022-10-07T13:22:24.261Z,55.04
2022-10-07T13:24:54.979Z,54.68
2022-10-07T13:27:26.791Z,56.21
2022-10-07T13:29:53.552Z,57.02
2022-10-07T13:32:27.956Z,58.12
2022-10-07T13:34:54.315Z,57.91
2022-10-07T13:37:29.986Z,57.52
2022-10-07T13:39:57.236Z,59.08
2022-10-07T13:42:27.501Z,58.12
2022-10-07T13:48:58.279Z,55.46
2022-10-07T13:51:28.399Z,55.90
2022-10-07T13:53:59.520Z,55.18
2022-10-07T13:56:27.728Z,57.41
2022-10-07T13:58:55.183Z,55.96
2022-10-07T14:01:27.368Z,56.32
2022-10-07T14:04:09.055Z,55.65
2022-10-07T14:06:37.736Z,55.57
2022-10-07T14:09:04.136Z,54.71
2022-10-07T14:11:30.758Z,54.51
2022-10-07T14:13:59.346Z,54.77
2022-10-07T14:16:25.999Z,54.42
2022-10-07T14:18:52.760Z,54.89
2022-10-07T14:21:19.166Z,56.15
2022-10-07T14:23:49.186Z,55.81
2022-10-07T14:26:17.574Z,55.86
2022-10-07T14:28:44.365Z,55.25
2022-10-07T14:31:35.154Z,54.76
2022-10-07T14:34:36.339Z,55.04
2022-10-07T14:37:02.704Z,54.78
2022-10-07T14:39:34.416Z,55.13
2022-10-07T14:42:01.594Z,55.32
2022-10-07T14:44:28.121Z,55.69
2022-10-07T14:47:11.211Z,56.24
2022-10-07T14:49:37.755Z,55.48
2022-10-07T14:52:06.275Z,56.18
2022-10-07T14:54:33.611Z,56.50
2022-10-07T14:57:00.009Z,56.47
2022-10-07T14:59:26.458Z,56.54
2022-10-07T15:01:52.819Z,55.75
2022-10-07T15:04:19.334Z,56.29
2022-10-07T15:06:50.624Z,55.16
2022-10-07T15:09:18.296Z,56.37
2022-10-07T15:11:44.677Z,56.47
2022-10-07T15:14:11.911Z,56.08
2022-10-07T15:16:38.791Z,56.04
2022-10-07T15:19:05.298Z,55.98
2022-10-07T15:21:31.767Z,55.93
2022-10-07T15:23:58.138Z,56.19
2022-10-07T15:26:24.825Z,56.90
2022-10-07T15:28:54.112Z,57.53
2022-10-07T15:31:21.326Z,57.64
2022-10-07T15:33:47.854Z,57.14
2022-10-07T15:36:15.123Z,57.60
2022-10-07T15:38:41.493Z,56.51
2022-10-07T15:41:07.951Z,55.98
2022-10-07T15:43:35.166Z,56.44
2022-10-07T15:46:01.752Z,56.31
2022-10-07T15:48:28.791Z,56.25
2022-10-07T15:50:56.125Z,56.59
2022-10-07T15:53:23.614Z,57.00
2022-10-07T15:55:50.797Z,56.86
2022-10-07T15:58:18.209Z,57.07
2022-10-07T16:00:55.790Z,57.33
2022-10-07T16:03:22.198Z,57.44
2022-10-07T16:05:55.952Z,57.61
2022-10-07T16:08:22.433Z,57.46
2022-10-07T16:10:48.846Z,57.56
2022-10-07T16:13:15.178Z,57.84
2022-10-07T16:15:42.412Z,57.80
2022-10-07T16:18:08.832Z,57.60
2022-10-07T16:20:40.225Z,57.72
2022-10-07T16:23:06.642Z,58.14
2022-10-07T16:25:35.039Z,58.08
2022-10-07T16:28:20.032Z,58.18
2022-10-07T16:30:51.059Z,58.38
2022-10-07T16:33:18.889Z,58.66
2022-10-07T16:35:45.339Z,58.53
2022-10-07T16:38:11.712Z,60.18
2022-10-07T16:40:38.049Z,60.10
2022-10-07T16:43:04.427Z,61.34
2022-10-07T16:45:30.852Z,61.66
2022-10-07T16:47:57.356Z,61.40
2022-10-07T16:50:23.954Z,60.89
2022-10-07T16:52:50.321Z,61.01
2022-10-07T16:55:17.573Z,61.01
2022-10-07T16:57:44.527Z,61.06
2022-10-07T17:00:11.316Z,60.98
2022-10-07T17:02:37.674Z,61.07
2022-10-07T17:05:04.198Z,61.16
2022-10-07T17:07:30.544Z,61.27
2022-10-07T17:09:56.931Z,62.01
2022-10-07T17:12:24.404Z,64.42
2022-10-07T17:14:51.476Z,64.79
2022-10-07T17:17:18.959Z,64.14
2022-10-07T17:19:46.283Z,64.97
2022-10-07T17:22:12.701Z,64.95
2022-10-07T17:24:40.002Z,67.87
2022-10-07T17:27:08.438Z,66.61
2022-10-07T17:29:35.865Z,67.88
2022-10-07T17:32:02.569Z,66.09
2022-10-07T17:34:28.939Z,65.59
2022-10-07T17:36:55.346Z,65.37
2022-10-07T17:39:21.830Z,65.04
2022-10-07T17:41:48.408Z,65.03
2022-10-07T17:44:14.919Z,65.13
2022-10-07T17:46:41.436Z,65.36
2022-10-07T17:49:12.750Z,65.40
2022-10-07T17:51:42.344Z,65.64
2022-10-07T17:54:10.814Z,65.91
2022-10-07T17:56:37.300Z,66.10
2022-10-07T17:59:05.342Z,66.07
2022-10-07T18:01:33.837Z,66.15
2022-10-07T18:04:01.570Z,66.35
2022-10-07T18:06:33.554Z,66.29
2022-10-07T18:09:02.242Z,66.32
2022-10-07T18:11:49.295Z,66.43
2022-10-07T18:14:34.537Z,66.30
2022-10-07T18:17:01.118Z,66.35
2022-10-07T18:19:27.679Z,66.82
2022-10-07T18:21:56.247Z,66.71
2022-10-07T18:24:28.054Z,66.77
2022-10-07T18:26:55.190Z,66.65
2022-10-07T18:29:21.589Z,66.67
2022-10-07T18:31:48.085Z,66.61
2022-10-07T18:34:14.494Z,66.53
2022-10-07T18:36:40.848Z,66.91
2022-10-07T18:39:08.793Z,67.19
2022-10-07T18:41:35.147Z,67.32
2022-10-07T18:44:01.534Z,67.02
2022-10-07T18:46:27.911Z,67.13
2022-10-07T18:48:54.396Z,67.22
2022-10-07T18:51:20.753Z,67.25
2022-10-07T18:53:47.307Z,67.49
2022-10-07T18:56:15.348Z,67.86
2022-10-07T18:58:43.069Z,67.48
2022-10-07T19:01:11.052Z,67.61
2022-10-07T19:03:37.538Z,68.03
2022-10-07T19:06:04.897Z,68.04
2022-10-07T19:08:31.429Z,68.43
2022-10-07T19:11:01.906Z,68.29
2022-10-07T19:13:47.154Z,68.49
2022-10-07T19:16:34.934Z,68.85
2022-10-07T19:19:05.865Z,69.19
2022-10-07T19:21:33.356Z,69.34
2022-10-07T19:24:01.596Z,69.15
2022-10-07T19:26:33.886Z,69.75
2022-10-07T19:29:01.016Z,69.78
2022-10-07T19:31:32.023Z,69.99
2022-10-07T19:34:02.705Z,69.74
2022-10-07T19:36:30.550Z,70.23
2022-10-07T19:38:58.416Z,70.18
2022-10-07T19:41:27.218Z,70.14
2022-10-07T19:43:53.600Z,70.01
2022-10-07T19:46:21.725Z,70.26
2022-10-07T19:48:48.545Z,70.29
2022-10-07T19:51:16.087Z,70.21
2022-10-07T19:53:46.807Z,70.23
2022-10-07T19:56:20.045Z,70.00
2022-10-07T19:58:47.955Z,70.27
2022-10-07T20:01:15.745Z,70.33
2022-10-07T20:03:42.538Z,70.43
2022-10-07T20:06:09.837Z,70.40
2022-10-07T20:08:37.773Z,70.63
2022-10-07T20:11:04.767Z,70.63
2022-10-07T20:13:32.660Z,70.63
2022-10-07T20:16:03.687Z,71.20
2022-10-07T20:18:30.112Z,71.19
2022-10-07T20:21:03.673Z,71.06
2022-10-07T20:23:33.844Z,71.87
2022-10-07T20:26:11.056Z,71.89
2022-10-07T20:28:37.810Z,72.02
2022-10-07T20:31:08.147Z,72.16
2022-10-07T20:33:39.167Z,72.25
2022-10-07T20:36:09.991Z,72.26
2022-10-07T20:38:55.143Z,72.45
2022-10-07T20:41:41.197Z,72.07
2022-10-07T20:44:07.696Z,72.42
2022-10-07T20:46:34.534Z,72.37
2022-10-07T20:49:00.955Z,72.36
2022-10-07T20:51:27.518Z,72.25
2022-10-07T20:53:53.971Z,72.43
2022-10-07T20:56:20.362Z,73.14
2022-10-07T20:58:46.787Z,75.54
2022-10-07T21:01:13.249Z,73.63
2022-10-07T21:03:39.778Z,73.55
2022-10-07T21:06:06.329Z,73.38
2022-10-07T21:08:32.749Z,73.08
2022-10-07T21:11:00.186Z,73.15
2022-10-07T21:13:27.340Z,73.03
2022-10-07T21:15:54.906Z,73.14
2022-10-07T21:18:21.355Z,73.12
2022-10-07T21:20:56.318Z,73.82
2022-10-07T21:23:23.758Z,73.35
2022-10-07T21:25:51.672Z,73.81
2022-10-07T21:28:18.415Z,73.80
2022-10-07T21:30:53.892Z,73.36
2022-10-07T21:33:20.366Z,73.51
2022-10-07T21:35:47.859Z,73.52
2022-10-07T21:38:14.571Z,73.54
2022-10-07T21:40:40.929Z,74.01
2022-10-07T21:43:07.317Z,76.79
2022-10-07T21:45:33.720Z,75.56
2022-10-07T21:48:00.160Z,75.29
2022-10-07T21:50:26.557Z,74.79
2022-10-07T21:52:52.946Z,76.54
2022-10-07T21:55:19.306Z,76.21
2022-10-07T21:57:45.871Z,79.11
2022-10-07T22:00:12.808Z,77.11
2022-10-07T22:02:39.420Z,76.60
2022-10-07T22:05:06.073Z,76.77
2022-10-07T22:07:51.366Z,77.80
2022-10-07T22:10:17.781Z,79.36
2022-10-07T22:12:44.678Z,77.44
2022-10-07T22:15:11.464Z,77.63
2022-10-07T22:17:37.867Z,76.80
2022-10-07T22:20:04.411Z,77.27
2022-10-07T22:22:31.981Z,78.26
2022-10-07T22:24:58.322Z,77.49
2022-10-07T22:27:25.935Z,76.74
2022-10-07T22:29:52.347Z,76.43
2022-10-07T22:32:18.747Z,77.18
2022-10-07T22:35:03.837Z,78.21
2022-10-07T22:37:30.220Z,77.77
2022-10-07T22:39:56.609Z,78.19
2022-10-07T22:42:22.966Z,77.36
2022-10-07T22:44:49.329Z,77.93
2022-10-07T22:47:16.288Z,77.06
2022-10-07T22:49:42.715Z,77.32
2022-10-07T22:52:09.073Z,79.21
2022-10-07T22:54:35.443Z,77.37
2022-10-07T22:57:02.168Z,77.89
2022-10-07T22:59:28.547Z,77.75
2022-10-07T23:01:54.984Z,76.84
2022-10-07T23:04:21.535Z,76.64
2022-10-07T23:06:48.266Z,76.93
2022-10-07T23:09:14.626Z,76.08
2022-10-07T23:11:41.034Z,76.42
2022-10-07T23:14:07.403Z,76.22
2022-10-07T23:16:34.106Z,76.84
2022-10-07T23:19:01.423Z,77.38
2022-10-07T23:21:29.510Z,77.54
2022-10-07T23:24:01.717Z,77.85
2022-10-07T23:26:30.321Z,77.69
2022-10-07T23:28:58.289Z,77.31
2022-10-07T23:31:27.195Z,77.57
2022-10-07T23:33:54.736Z,77.83
2022-10-07T23:36:21.908Z,78.30
2022-10-07T23:38:49.136Z,77.80
2022-10-07T23:41:17.177Z,77.59
2022-10-07T23:43:43.597Z,79.19
2022-10-07T23:46:14.275Z,79.91
2022-10-07T23:48:41.012Z,80.54
2022-10-07T23:51:07.376Z,78.54
2022-10-07T23:53:34.628Z,78.93
2022-10-07T23:56:01.071Z,78.83
2022-10-07T23:58:29.043Z,79.86
